Time;durP1;ratioP1;P1;durP2;ratioP2;P2;SDS_P1;SDS_P2;PMS_P1;PMS_P2;Temp;Humidity;BMP_temperature;BMP_pressure;BME280_temperature;BME280_humidity;BME280_pressure;Samples;Min_cycle;Max_cycle;Signal;HPM_P1;HPM_P2
2022/07/24 00:00:28;;;;;;;1.25;1.13;;;22.40;91.90;;;;;;4116484;28;20046;-56
2022/07/24 00:02:30;;;;;;;;;;;22.30;92.30;;;;;;4128443;28;20034;-55
2022/07/24 00:04:32;;;;;;;0.90;0.90;;;22.10;92.50;;;;;;4122301;28;19976;-55
2022/07/24 00:06:37;;;;;;;0.90;0.90;;;22.10;92.10;;;;;;4113277;28;20049;-56
2022/07/24 00:08:40;;;;;;;;;;;22.20;91.90;;;;;;4128727;28;20077;-55
2022/07/24 00:10:42;;;;;;;2.88;1.20;;;22.30;92.10;;;;;;4130955;28;19929;-55
2022/07/24 00:12:45;;;;;;;2.38;0.98;;;22.40;91.70;;;;;;4130692;28;20046;-56
2022/07/24 00:14:48;;;;;;;1.08;0.93;;;22.30;92.40;;;;;;4130356;28;20104;-56
2022/07/24 00:16:50;;;;;;;1.10;1.10;;;22.10;92.50;;;;;;4130457;28;20134;-56
2022/07/24 00:18:52;;;;;;;1.45;1.00;;;22.10;92.60;;;;;;4113037;28;20046;-55
2022/07/24 00:20:54;;;;;;;;;;;22.20;92.50;;;;;;4127146;28;20042;-57
2022/07/24 00:22:56;;;;;;;1.00;0.90;;;22.50;92.10;;;;;;4130196;28;19933;-55
2022/07/24 00:24:59;;;;;;;1.60;1.20;;;22.40;92.10;;;;;;4145284;28;20339;-56
2022/07/24 00:27:01;;;;;;;3.28;0.80;;;22.50;92.60;;;;;;4118657;28;20046;-55
2022/07/24 00:29:04;;;;;;;1.23;0.80;;;22.60;92.30;;;;;;4115486;28;20043;-56
2022/07/24 00:31:07;;;;;;;1.70;0.98;;;22.50;93.00;;;;;;4117592;28;20074;-55
2022/07/24 00:33:09;;;;;;;;;;;22.40;93.20;;;;;;4121530;28;20046;-57
2022/07/24 00:35:13;;;;;;;2.97;0.90;;;22.30;93.40;;;;;;4130383;28;20286;-56
2022/07/24 00:37:15;;;;;;;1.88;0.90;;;22.30;93.30;;;;;;4114743;28;20298;-56
2022/07/24 00:39:19;;;;;;;1.23;1.00;;;22.30;93.50;;;;;;4118829;28;20397;-56
2022/07/24 00:41:21;;;;;;;0.98;0.98;;;22.10;93.90;;;;;;4130188;28;20518;-56
2022/07/24 00:43:23;;;;;;;2.72;1.00;;;21.90;94.10;;;;;;4135176;28;20081;-56
2022/07/24 00:45:25;;;;;;;1.00;1.00;;;21.90;94.20;;;;;;4130030;28;20038;-56
2022/07/24 00:47:27;;;;;;;;;;;22.10;94.00;;;;;;4130460;28;20042;-56
2022/07/24 00:49:29;;;;;;;2.27;1.17;;;22.30;93.80;;;;;;4136163;28;20734;-57
2022/07/24 00:51:33;;;;;;;1.65;1.05;;;22.30;93.30;;;;;;4129963;28;20824;-56
2022/07/24 00:53:35;;;;;;;1.20;1.10;;;22.10;93.60;;;;;;4128564;28;20046;-56
2022/07/24 00:55:37;;;;;;;1.40;0.90;;;21.90;94.00;;;;;;4120748;28;20039;-55
2022/07/24 00:57:39;;;;;;;;;;;22.00;94.40;;;;;;4113394;28;20145;-56
2022/07/24 00:59:41;;;;;;;1.30;1.20;;;22.00;94.60;;;;;;4113756;28;19973;-56
2022/07/24 01:01:43;;;;;;;1.27;1.17;;;22.00;94.50;;;;;;4125494;28;20053;-55
2022/07/24 01:03:46;;;;;;;1.90;1.10;;;22.00;94.70;;;;;;4129733;28;20470;-55
2022/07/24 01:05:48;;;;;;;1.73;1.50;;;21.90;94.50;;;;;;4115233;28;20174;-55
2022/07/24 01:07:50;;;;;;;4.63;1.30;;;21.90;94.70;;;;;;4118502;28;20039;-56
2022/07/24 01:09:54;;;;;;;2.65;1.15;;;21.90;94.80;;;;;;4113473;28;20470;-55
2022/07/24 01:11:57;;;;;;;2.65;1.00;;;22.00;94.90;;;;;;4140692;28;20104;-56
2022/07/24 01:14:00;;;;;;;3.50;1.10;;;22.00;95.40;;;;;;4129401;28;20259;-56
2022/07/24 01:16:02;;;;;;;;;;;22.00;95.10;;;;;;4130219;28;20042;-55
2022/07/24 01:18:04;;;;;;;1.60;1.05;;;21.90;95.80;;;;;;4128653;28;20373;-55
2022/07/24 01:20:07;;;;;;;2.25;0.90;;;22.00;96.00;;;;;;4129708;28;20605;-56
2022/07/24 01:22:09;;;;;;;1.25;1.15;;;21.90;95.80;;;;;;4129420;28;20121;-55
2022/07/24 01:24:12;;;;;;;;;;;21.90;96.90;;;;;;4136340;28;20074;-56
2022/07/24 01:26:14;;;;;;;1.80;1.00;;;21.90;96.70;;;;;;4113437;28;19961;-55
2022/07/24 01:28:16;;;;;;;1.40;1.30;;;21.70;97.20;;;;;;4128687;28;20420;-56
2022/07/24 01:30:19;;;;;;;1.35;1.10;;;21.50;98.10;;;;;;4123155;28;20479;-55
2022/07/24 01:32:21;;;;;;;1.17;1.15;;;21.50;98.50;;;;;;4113437;28;20082;-55
2022/07/24 01:34:23;;;;;;;2.30;1.33;;;21.60;98.50;;;;;;4126183;28;20057;-55
2022/07/24 01:36:25;;;;;;;2.25;1.15;;;21.60;98.60;;;;;;4125241;28;20050;-56
2022/07/24 01:38:27;;;;;;;1.33;1.23;;;21.40;99.10;;;;;;4113208;28;20101;-56
2022/07/24 01:40:29;;;;;;;;;;;21.20;99.60;;;;;;4124209;28;20392;-55
2022/07/24 01:42:31;;;;;;;1.38;1.38;;;21.30;99.70;;;;;;4127479;28;20270;-55
2022/07/24 01:44:33;;;;;;;1.30;1.20;;;21.20;99.90;;;;;;4127199;28;20047;-55
2022/07/24 01:46:35;;;;;;;2.53;1.17;;;21.20;99.90;;;;;;4129061;28;20360;-55
2022/07/24 01:48:40;;;;;;;1.00;1.00;;;20.90;99.90;;;;;;4128937;28;20550;-55
2022/07/24 01:50:42;;;;;;;5.13;2.15;;;20.90;99.90;;;;;;4125515;28;20038;-55
2022/07/24 01:52:44;;;;;;;1.90;1.23;;;20.90;99.90;;;;;;4123015;28;20042;-56
2022/07/24 01:54:46;;;;;;;;;;;21.00;99.90;;;;;;4129382;28;20051;-56
2022/07/24 01:56:48;;;;;;;1.13;1.03;;;20.90;99.90;;;;;;4115090;28;19925;-56
2022/07/24 01:58:51;;;;;;;1.35;1.25;;;20.90;99.90;;;;;;4112720;28;20478;-56
2022/07/24 02:00:53;;;;;;;;;;;20.90;99.90;;;;;;4119354;28;20398;-56
2022/07/24 02:02:55;;;;;;;4.80;1.20;;;21.10;99.90;;;;;;4127752;28;19922;-56
2022/07/24 02:04:57;;;;;;;1.20;1.20;;;21.20;99.90;;;;;;4126640;28;20046;-55
2022/07/24 02:06:59;;;;;;;1.40;1.40;;;20.90;99.90;;;;;;4125695;28;20052;-57
2022/07/24 02:09:01;;;;;;;;;;;20.80;99.90;;;;;;4113421;28;20130;-55
2022/07/24 02:11:04;;;;;;;1.98;1.63;;;20.60;99.90;;;;;;4116893;28;20429;-56
2022/07/24 02:13:06;;;;;;;1.98;1.20;;;20.70;99.90;;;;;;4126991;28;20097;-56
2022/07/24 02:15:09;;;;;;;1.13;1.10;;;20.80;99.90;;;;;;4128142;28;20447;-55
2022/07/24 02:17:11;;;;;;;1.25;1.23;;;20.70;99.90;;;;;;4128498;28;20121;-56
2022/07/24 02:19:14;;;;;;;3.88;1.23;;;20.60;99.90;;;;;;4128476;28;20050;-55
2022/07/24 02:21:16;;;;;;;1.25;1.15;;;20.50;99.90;;;;;;4123568;28;20109;-56
2022/07/24 02:23:18;;;;;;;4.10;1.35;;;20.50;99.90;;;;;;4127390;28;20038;-55
2022/07/24 02:25:20;;;;;;;1.42;1.35;;;20.40;99.90;;;;;;4124466;28;20459;-56
2022/07/24 02:27:22;;;;;;;1.40;1.30;;;20.70;99.90;;;;;;4127427;28;20034;-56
2022/07/24 02:29:24;;;;;;;1.25;1.20;;;20.50;99.90;;;;;;4128553;28;20039;-55
2022/07/24 02:31:32;;;;;;;2.00;1.20;;;20.50;99.90;;;;;;4123445;28;20282;-54
2022/07/24 02:33:34;;;;;;;;;;;20.60;99.90;;;;;;4114641;28;20093;-56
2022/07/24 02:35:38;;;;;;;1.63;1.10;;;20.50;99.90;;;;;;4128515;28;20456;-57
2022/07/24 02:37:42;;;;;;;1.45;1.45;;;20.70;99.90;;;;;;4125864;28;20129;-55
2022/07/24 02:39:44;;;;;;;1.92;1.20;;;20.70;99.90;;;;;;4126753;28;20050;-56
2022/07/24 02:41:46;;;;;;;2.55;1.50;;;20.80;99.90;;;;;;4111138;28;20073;-55
2022/07/24 02:43:48;;;;;;;;;;;20.80;99.90;;;;;;4119606;28;20078;-56
2022/07/24 02:45:51;;;;;;;2.58;1.33;;;20.60;99.90;;;;;;4126892;28;19929;-55
2022/07/24 02:47:56;;;;;;;5.90;1.60;;;20.60;99.90;;;;;;4113834;28;20035;-55
2022/07/24 02:49:58;;;;;;;3.53;1.67;;;20.60;99.90;;;;;;4118487;28;20046;-56
2022/07/24 02:52:00;;;;;;;;;;;20.50;99.90;;;;;;4128663;28;20057;-56
2022/07/24 02:54:02;;;;;;;1.98;1.30;;;20.50;99.90;;;;;;4115328;28;20355;-56
2022/07/24 02:56:06;;;;;;;1.67;1.58;;;20.60;99.90;;;;;;4115397;28;20042;-56
2022/07/24 02:58:08;;;;;;;2.75;1.70;;;20.50;99.90;;;;;;4126973;28;20070;-56
2022/07/24 03:00:13;;;;;;;4.07;1.58;;;20.60;99.90;;;;;;4117768;28;20043;-55
2022/07/24 03:02:15;;;;;;;1.40;1.30;;;20.40;99.90;;;;;;4113302;28;20043;-55
2022/07/24 03:04:17;;;;;;;1.63;1.52;;;20.40;99.90;;;;;;4128543;28;20117;-56
2022/07/24 03:06:20;;;;;;;1.95;1.45;;;20.30;99.90;;;;;;4119008;28;20047;-56
2022/07/24 03:08:23;;;;;;;3.00;1.90;;;20.30;99.90;;;;;;4123440;28;20474;-56
2022/07/24 03:10:25;;;;;;;1.30;1.20;;;20.20;99.90;;;;;;4128356;28;20046;-55
2022/07/24 03:12:27;;;;;;;1.20;1.20;;;20.30;99.90;;;;;;4127497;28;20046;-55
2022/07/24 03:14:29;;;;;;;1.63;1.52;;;20.20;99.90;;;;;;4128066;28;20153;-55
2022/07/24 03:16:31;;;;;;;1.20;1.20;;;20.10;99.90;;;;;;4114594;28;20042;-57
2022/07/24 03:18:40;;;;;;;1.48;1.38;;;20.00;99.90;;;;;;4126138;28;20129;-56
2022/07/24 03:20:43;;;;;;;1.95;1.85;;;20.00;99.90;;;;;;4128244;28;20051;-55
2022/07/24 03:22:46;;;;;;;1.38;1.27;;;19.90;99.90;;;;;;4115882;28;20031;-57
2022/07/24 03:24:48;;;;;;;1.85;1.75;;;20.00;99.90;;;;;;4112026;28;20135;-55
2022/07/24 03:26:50;;;;;;;1.55;1.30;;;19.90;99.90;;;;;;4112277;28;20055;-55
2022/07/24 03:28:53;;;;;;;1.80;1.65;;;20.00;99.90;;;;;;4112016;28;20043;-55
2022/07/24 03:30:55;;;;;;;2.25;1.30;;;20.00;99.90;;;;;;4112858;28;20051;-55
2022/07/24 03:32:57;;;;;;;;;;;20.10;99.90;;;;;;4128127;28;20042;-56
2022/07/24 03:34:59;;;;;;;1.53;1.43;;;20.00;99.90;;;;;;4120062;28;20020;-57
2022/07/24 03:37:02;;;;;;;1.92;1.83;;;19.90;99.90;;;;;;4111931;28;20126;-56
2022/07/24 03:39:04;;;;;;;1.90;1.80;;;19.70;99.90;;;;;;4126902;28;20050;-56
2022/07/24 03:41:07;;;;;;;1.92;1.83;;;19.70;99.90;;;;;;4121275;28;20506;-57
2022/07/24 03:43:10;;;;;;;1.65;1.55;;;19.70;99.90;;;;;;4115063;28;20046;-55
2022/07/24 03:45:12;;;;;;;;;;;19.70;99.90;;;;;;4128240;28;20149;-56
2022/07/24 03:47:14;;;;;;;1.97;1.87;;;19.50;99.90;;;;;;4124265;28;19929;-55
2022/07/24 03:49:16;;;;;;;2.00;1.90;;;19.20;99.90;;;;;;4112711;28;20066;-56
2022/07/24 03:51:19;;;;;;;1.85;1.70;;;19.10;99.90;;;;;;4127833;28;20054;-55
2022/07/24 03:53:22;;;;;;;4.10;2.10;;;19.00;99.90;;;;;;4125779;28;20506;-56
2022/07/24 03:55:24;;;;;;;;;;;19.10;99.90;;;;;;4111866;28;20076;-56
2022/07/24 03:57:26;;;;;;;4.40;2.10;;;19.00;99.90;;;;;;4120585;28;19921;-56
2022/07/24 03:59:28;;;;;;;2.03;1.92;;;19.10;99.90;;;;;;4127829;28;20125;-56
2022/07/24 04:01:30;;;;;;;2.28;2.17;;;19.30;99.90;;;;;;4110407;28;20046;-56
2022/07/24 04:03:33;;;;;;;2.10;1.98;;;19.40;99.90;;;;;;4118320;28;20397;-55
2022/07/24 04:05:35;;;;;;;1.88;1.70;;;19.10;99.90;;;;;;4142469;28;20074;-56
2022/07/24 04:07:42;;;;;;;2.42;1.92;;;19.10;99.90;;;;;;4120506;28;20050;-56
2022/07/24 04:09:44;;;;;;;3.47;1.90;;;19.30;99.90;;;;;;4127110;28;20038;-56
2022/07/24 04:11:48;;;;;;;;;;;19.20;99.90;;;;;;4128214;28;20129;-56
2022/07/24 04:13:50;;;;;;;1.63;1.60;;;19.10;99.90;;;;;;4127650;28;19926;-56
2022/07/24 04:15:53;;;;;;;1.83;1.73;;;19.40;99.90;;;;;;4123952;28;20051;-56
2022/07/24 04:17:55;;;;;;;2.60;2.50;;;19.50;99.90;;;;;;4120692;28;20497;-55
2022/07/24 04:19:57;;;;;;;2.03;1.92;;;19.60;99.90;;;;;;4130525;28;20101;-55
2022/07/24 04:22:00;;;;;;;2.33;1.58;;;19.50;99.90;;;;;;4129087;28;20113;-55
2022/07/24 04:24:02;;;;;;;1.98;1.77;;;19.40;99.90;;;;;;4114613;28;20042;-56
2022/07/24 04:26:04;;;;;;;;;;;19.40;99.90;;;;;;4114670;28;20035;-56
2022/07/24 04:28:06;;;;;;;2.45;1.63;;;19.20;99.90;;;;;;4114463;28;19961;-56
2022/07/24 04:30:10;;;;;;;2.42;2.15;;;19.10;99.90;;;;;;4129602;28;20039;-56
2022/07/24 04:32:12;;;;;;;2.67;2.00;;;19.00;99.90;;;;;;4123725;28;20554;-56
2022/07/24 04:34:14;;;;;;;2.15;2.05;;;19.00;99.90;;;;;;4113116;28;20495;-55
2022/07/24 04:36:16;;;;;;;2.53;2.38;;;19.10;99.90;;;;;;4127275;28;20050;-56
2022/07/24 04:38:18;;;;;;;;;;;19.00;99.90;;;;;;4126665;28;20042;-56
2022/07/24 04:40:20;;;;;;;2.53;2.43;;;19.00;99.90;;;;;;4113796;28;19926;-56
2022/07/24 04:42:22;;;;;;;2.13;2.03;;;18.80;99.90;;;;;;4124909;28;20085;-56
2022/07/24 04:44:24;;;;;;;2.30;2.20;;;18.90;99.90;;;;;;4129740;28;20129;-55
2022/07/24 04:46:27;;;;;;;2.55;2.50;;;19.00;99.90;;;;;;4130055;28;20038;-56
2022/07/24 04:48:29;;;;;;;4.55;2.47;;;19.10;99.90;;;;;;4120749;28;20027;-56
2022/07/24 04:50:32;;;;;;;4.38;3.45;;;19.10;99.90;;;;;;4125188;28;20082;-57
2022/07/24 04:52:34;;;;;;;2.65;2.55;;;19.10;99.90;;;;;;4113697;28;20038;-56
2022/07/24 04:54:36;;;;;;;2.40;2.25;;;19.10;99.90;;;;;;4113896;28;20039;-56
2022/07/24 04:56:38;;;;;;;2.38;1.90;;;19.10;99.90;;;;;;4113676;28;20047;-56
2022/07/24 04:58:40;;;;;;;2.20;2.10;;;19.10;99.90;;;;;;4113991;28;20045;-56
2022/07/24 05:00:42;;;;;;;;;;;19.20;99.90;;;;;;4118883;28;20042;-56
2022/07/24 05:02:45;;;;;;;2.55;2.45;;;19.10;99.90;;;;;;4129824;28;19922;-56
2022/07/24 05:04:47;;;;;;;3.85;2.47;;;19.20;99.90;;;;;;4129536;28;20390;-55
2022/07/24 05:06:49;;;;;;;2.35;2.25;;;19.20;99.90;;;;;;4127407;28;20125;-56
2022/07/24 05:08:51;;;;;;;;;;;19.20;99.90;;;;;;4129656;28;20044;-56
2022/07/24 05:10:53;;;;;;;4.18;2.30;;;19.40;99.90;;;;;;4129372;28;20013;-55
2022/07/24 05:12:55;;;;;;;3.08;2.88;;;19.40;99.90;;;;;;4129411;28;20046;-56
2022/07/24 05:15:05;;;;;;;2.45;2.17;;;19.40;99.90;;;;;;4129649;28;20278;-56
2022/07/24 05:17:07;;;;;;;3.35;2.10;;;19.40;99.90;;;;;;4123320;28;20126;-56
2022/07/24 05:19:09;;;;;;;3.47;1.98;;;19.40;99.90;;;;;;4129222;28;20050;-55
2022/07/24 05:21:14;;;;;;;2.88;2.40;;;19.40;99.90;;;;;;4129366;28;20125;-56
2022/07/24 05:23:16;;;;;;;2.95;2.75;;;19.50;99.90;;;;;;4122871;28;20039;-57
2022/07/24 05:25:19;;;;;;;3.15;2.58;;;19.60;99.90;;;;;;4113276;28;20125;-56
2022/07/24 05:27:21;;;;;;;2.90;2.40;;;19.70;99.90;;;;;;4126870;28;20375;-56
2022/07/24 05:29:23;;;;;;;2.78;2.40;;;19.90;99.90;;;;;;4124233;28;20634;-55
2022/07/24 05:31:26;;;;;;;3.88;2.25;;;19.90;99.90;;;;;;4113345;28;20047;-55
2022/07/24 05:33:27;;;;;;;;;;;19.90;99.90;;;;;;4124999;28;20050;-56
2022/07/24 05:35:29;;;;;;;3.83;2.33;;;19.90;99.90;;;;;;4126960;28;19987;-57
2022/07/24 05:37:32;;;;;;;2.88;2.78;;;19.90;99.90;;;;;;4113178;28;20050;-57
2022/07/24 05:39:35;;;;;;;2.10;2.00;;;19.90;99.90;;;;;;4122577;28;20120;-56
2022/07/24 05:41:37;;;;;;;3.30;2.58;;;19.90;99.90;;;;;;4128878;28;20046;-57
2022/07/24 05:43:40;;;;;;;5.38;2.95;;;20.10;99.90;;;;;;4119737;28;20117;-56
2022/07/24 05:45:42;;;;;;;2.70;1.98;;;20.20;99.90;;;;;;4129200;28;20541;-57
2022/07/24 05:47:44;;;;;;;2.65;2.45;;;20.30;99.90;;;;;;4128843;28;20043;-57
2022/07/24 05:49:47;;;;;;;2.70;2.50;;;20.40;99.90;;;;;;4119454;28;20105;-55
2022/07/24 05:51:49;;;;;;;2.65;2.55;;;20.30;99.90;;;;;;4128909;28;20129;-56
2022/07/24 05:53:51;;;;;;;2.15;2.05;;;20.30;99.90;;;;;;4128702;28;20038;-56
2022/07/24 05:55:53;;;;;;;2.65;2.53;;;20.40;99.90;;;;;;4131591;28;20088;-56
2022/07/24 05:57:55;;;;;;;2.28;2.08;;;20.50;99.90;;;;;;4115744;28;20255;-56
2022/07/24 05:59:57;;;;;;;;;;;20.50;99.90;;;;;;4129134;28;20050;-56
2022/07/24 06:02:01;;;;;;;2.58;2.40;;;20.60;99.90;;;;;;4118865;28;19928;-56
2022/07/24 06:04:03;;;;;;;4.72;2.55;;;20.60;99.90;;;;;;4113807;28;20098;-56
2022/07/24 06:06:06;;;;;;;2.95;2.75;;;20.60;99.90;;;;;;4128968;28;20530;-56
2022/07/24 06:08:13;;;;;;;5.65;2.33;;;20.70;99.90;;;;;;4128485;28;20070;-57
2022/07/24 06:10:15;;;;;;;2.58;2.47;;;21.00;99.90;;;;;;4128677;28;20038;-57
2022/07/24 06:12:18;;;;;;;2.25;2.15;;;21.10;99.90;;;;;;4125579;28;20042;-57
2022/07/24 06:14:21;;;;;;;2.65;2.42;;;21.30;99.90;;;;;;4143151;28;20076;-57
2022/07/24 06:16:23;;;;;;;2.70;2.45;;;21.60;99.90;;;;;;4128354;28;20433;-57
2022/07/24 06:18:25;;;;;;;1.70;1.60;;;21.60;99.90;;;;;;4126663;28;20410;-56
2022/07/24 06:20:27;;;;;;;4.40;1.85;;;21.90;99.90;;;;;;4128197;28;20044;-56
2022/07/24 06:22:29;;;;;;;3.25;2.63;;;21.90;99.90;;;;;;4128491;28;20042;-57
2022/07/24 06:24:31;;;;;;;2.60;2.40;;;22.00;99.90;;;;;;4116549;28;20055;-57
2022/07/24 06:26:33;;;;;;;3.35;2.88;;;21.90;99.90;;;;;;4114993;28;20050;-56
2022/07/24 06:28:55;;;;;;;2.08;1.98;;;21.90;99.90;;;;;;4128653;28;20100;-57
2022/07/24 06:30:57;;;;;;;4.00;2.38;;;22.10;99.90;;;;;;4116009;28;20049;-57
2022/07/24 06:33:00;;;;;;;2.75;2.38;;;22.40;99.90;;;;;;4115047;28;20312;-56
2022/07/24 06:35:03;;;;;;;2.25;1.75;;;22.50;99.90;;;;;;4128634;28;20054;-57
2022/07/24 06:37:04;;;;;;;;;;;22.60;99.90;;;;;;4132729;28;20058;-57
2022/07/24 06:39:07;;;;;;;1.83;1.70;;;22.80;99.90;;;;;;4113383;28;19961;-56
2022/07/24 06:41:09;;;;;;;1.75;1.65;;;23.00;99.90;;;;;;4127259;28;20101;-56
2022/07/24 06:43:11;;;;;;;1.73;1.63;;;23.20;99.90;;;;;;4123434;28;20045;-56
2022/07/24 06:45:14;;;;;;;1.80;1.70;;;23.30;99.90;;;;;;4120958;28;20053;-56
2022/07/24 06:47:16;;;;;;;1.75;1.65;;;23.40;99.90;;;;;;4126185;28;20038;-57
2022/07/24 06:49:18;;;;;;;2.92;2.03;;;23.50;99.90;;;;;;4125067;28;20042;-58
2022/07/24 06:51:21;;;;;;;6.55;2.08;;;24.00;99.90;;;;;;4124369;28;20145;-58
2022/07/24 06:53:23;;;;;;;2.63;1.50;;;24.10;99.90;;;;;;4127933;28;20050;-57
2022/07/24 06:55:25;;;;;;;2.10;1.88;;;24.40;99.90;;;;;;4124391;28;20039;-56
2022/07/24 06:57:27;;;;;;;5.80;2.28;;;24.50;99.90;;;;;;4116335;28;20053;-57
2022/07/24 06:59:29;;;;;;;2.35;1.70;;;24.40;99.90;;;;;;4122484;28;20046;-56
2022/07/24 07:01:31;;;;;;;1.73;1.63;;;24.60;99.90;;;;;;4127250;28;20125;-57
2022/07/24 07:03:34;;;;;;;2.63;2.40;;;25.00;99.90;;;;;;4126245;28;20075;-56
2022/07/24 07:05:36;;;;;;;2.55;1.38;;;25.00;99.90;;;;;;4120359;28;20527;-57
2022/07/24 07:07:39;;;;;;;3.35;1.60;;;25.20;99.90;;;;;;4126933;28;20101;-57
2022/07/24 07:09:42;;;;;;;1.85;1.75;;;25.10;99.90;;;;;;4123134;28;20194;-56
2022/07/24 07:11:44;;;;;;;4.45;2.00;;;25.00;99.90;;;;;;4120495;28;20069;-57
2022/07/24 07:13:53;;;;;;;3.47;2.80;;;25.00;99.90;;;;;;4127635;28;20149;-57
2022/07/24 07:15:55;;;;;;;4.13;1.80;;;25.30;99.90;;;;;;4113252;28;20332;-57
2022/07/24 07:17:57;;;;;;;;;;;25.40;99.90;;;;;;4118867;28;20450;-57
2022/07/24 07:19:59;;;;;;;3.25;1.60;;;25.40;99.90;;;;;;4120082;28;19933;-56
2022/07/24 07:22:01;;;;;;;;;;;25.60;99.90;;;;;;4125543;28;20042;-57
2022/07/24 07:24:04;;;;;;;2.00;1.90;;;25.60;99.90;;;;;;4115105;28;19926;-56
2022/07/24 07:26:07;;;;;;;2.05;1.90;;;25.80;99.90;;;;;;4111879;28;20035;-56
2022/07/24 07:28:09;;;;;;;1.98;1.88;;;25.70;99.90;;;;;;4120884;28;20073;-57
2022/07/24 07:30:12;;;;;;;3.47;1.73;;;26.10;99.90;;;;;;4112855;28;20070;-57
2022/07/24 07:32:14;;;;;;;3.10;2.10;;;26.40;99.90;;;;;;4121443;28;20446;-56
2022/07/24 07:34:16;;;;;;;2.40;1.77;;;26.70;99.90;;;;;;4119504;28;20054;-56
2022/07/24 07:36:19;;;;;;;4.57;1.80;;;26.70;99.90;;;;;;4112183;28;20131;-56
2022/07/24 07:38:21;;;;;;;5.72;2.88;;;27.10;99.90;;;;;;4113864;28;20070;-57
2022/07/24 07:40:27;;;;;;;2.97;1.67;;;27.30;99.90;;;;;;4119538;28;20538;-57
2022/07/24 07:42:29;;;;;;;;;;;27.50;99.90;;;;;;4123633;28;20041;-57
2022/07/24 07:44:31;;;;;;;3.05;1.88;;;27.50;99.90;;;;;;4123837;28;19972;-57
2022/07/24 07:46:33;;;;;;;4.22;2.60;;;27.50;99.90;;;;;;4123419;28;20050;-57
2022/07/24 07:48:36;;;;;;;1.95;1.85;;;27.20;99.90;;;;;;4111535;28;20325;-58
2022/07/24 07:50:38;;;;;;;4.55;1.83;;;27.60;99.90;;;;;;4124562;28;20069;-56
2022/07/24 07:52:40;;;;;;;;;;;27.50;99.90;;;;;;4130094;28;20034;-56
2022/07/24 07:54:42;;;;;;;4.30;2.65;;;27.30;99.90;;;;;;4122500;28;19922;-58
2022/07/24 07:56:44;;;;;;;;;;;27.70;99.90;;;;;;4113502;28;20493;-57
2022/07/24 07:58:46;;;;;;;2.67;2.00;;;27.80;99.90;;;;;;4114994;28;19926;-58
2022/07/24 08:00:49;;;;;;;2.95;1.88;;;28.10;99.90;;;;;;4123212;28;20323;-58
2022/07/24 08:02:51;;;;;;;2.30;1.73;;;28.00;99.90;;;;;;4120975;28;20104;-57
2022/07/24 08:04:53;;;;;;;6.15;1.98;;;28.10;99.90;;;;;;4116073;28;20458;-57
2022/07/24 08:06:55;;;;;;;2.70;1.30;;;28.30;99.90;;;;;;4126775;28;20068;-57
2022/07/24 08:08:58;;;;;;;4.95;1.75;;;28.10;99.90;;;;;;4126485;28;20051;-57
2022/07/24 08:11:01;;;;;;;1.27;1.17;;;28.10;99.90;;;;;;4127439;28;20038;-58
2022/07/24 08:13:04;;;;;;;3.60;1.40;;;28.40;99.90;;;;;;4122799;28;20498;-58
2022/07/24 08:15:07;;;;;;;1.52;1.42;;;28.70;99.90;;;;;;4119246;28;20054;-57
2022/07/24 08:17:09;;;;;;;1.20;1.08;;;28.80;99.90;;;;;;4122798;28;20075;-57
2022/07/24 08:19:11;;;;;;;2.30;1.40;;;28.80;99.90;;;;;;4123105;28;20046;-57
2022/07/24 08:21:15;;;;;;;;;;;28.70;99.90;;;;;;4128559;28;20085;-59
2022/07/24 08:23:17;;;;;;;6.78;1.63;;;28.90;99.90;;;;;;4120079;28;19968;-56
2022/07/24 08:25:19;;;;;;;2.13;1.30;;;29.10;99.90;;;;;;4120953;28;20050;-57
2022/07/24 08:27:21;;;;;;;6.72;1.30;;;29.40;99.90;;;;;;4128603;28;20042;-57
2022/07/24 08:29:24;;;;;;;1.42;1.15;;;29.50;99.90;;;;;;4114621;28;20058;-58
2022/07/24 08:31:27;;;;;;;2.58;1.20;;;29.90;99.90;;;;;;4119337;28;20137;-57
2022/07/24 08:33:29;;;;;;;1.55;1.20;;;30.10;99.10;;;;;;4117150;28;20154;-57
2022/07/24 08:35:32;;;;;;;1.98;1.10;;;30.30;99.50;;;;;;4114875;28;20260;-57
2022/07/24 08:37:37;;;;;;;1.38;1.27;;;30.40;96.80;;;;;;4114717;28;20093;-57
2022/07/24 08:39:39;;;;;;;1.05;1.00;;;30.20;97.50;;;;;;4121172;28;20054;-57
2022/07/24 08:41:43;;;;;;;0.93;0.90;;;30.00;97.20;;;;;;4124976;28;20461;-57
2022/07/24 08:43:45;;;;;;;1.15;0.95;;;30.10;96.60;;;;;;4121849;28;20535;-57
2022/07/24 08:45:48;;;;;;;1.13;1.00;;;30.40;97.30;;;;;;4120481;28;20079;-57
2022/07/24 08:47:52;;;;;;;3.42;1.20;;;30.50;96.60;;;;;;4128117;28;20615;-58
2022/07/24 08:49:56;;;;;;;6.22;1.63;;;30.50;96.20;;;;;;4121447;28;20042;-57
2022/07/24 08:52:01;;;;;;;4.65;1.05;;;30.40;97.40;;;;;;4144253;28;20050;-57
2022/07/24 08:54:04;;;;;;;1.55;0.95;;;30.50;95.80;;;;;;4116742;28;20055;-58
2022/07/24 08:56:06;;;;;;;2.17;1.10;;;30.40;96.30;;;;;;4129138;28;20054;-56
2022/07/24 08:58:08;;;;;;;1.27;0.90;;;30.10;95.60;;;;;;4127675;28;20065;-56
2022/07/24 09:00:11;;;;;;;1.88;1.00;;;30.40;95.90;;;;;;4127311;28;20061;-57
2022/07/24 09:02:14;;;;;;;2.55;1.00;;;30.80;95.60;;;;;;4120751;28;20439;-58
2022/07/24 09:04:40;;;;;;;2.60;1.00;;;31.00;95.90;;;;;;4117398;28;20542;-56
2022/07/24 09:06:57;;;;;;;1.25;1.00;;;31.30;95.90;;;;;;4121409;28;20053;-59
2022/07/24 09:09:02;;;;;;;1.33;0.82;;;31.70;94.30;;;;;;4117520;28;20053;-58
2022/07/24 09:11:05;;;;;;;3.25;0.85;;;32.00;94.30;;;;;;4123025;28;20507;-57
2022/07/24 09:13:17;;;;;;;0.95;0.80;;;31.80;93.40;;;;;;4120462;28;20066;-57
2022/07/24 09:15:20;;;;;;;;;;;31.80;93.00;;;;;;4129629;28;20064;-57
2022/07/24 09:17:24;;;;;;;0.90;0.90;;;31.30;92.50;;;;;;4118470;28;19926;-56
2022/07/24 09:19:29;;;;;;;1.90;0.80;;;31.10;94.00;;;;;;4129072;28;20534;-57
2022/07/24 09:21:40;;;;;;;2.17;0.93;;;31.50;93.40;;;;;;4122043;28;20057;-57
2022/07/24 09:23:44;;;;;;;0.82;0.70;;;31.80;92.80;;;;;;4119734;28;20109;-57
2022/07/24 09:25:52;;;;;;;2.55;0.80;;;32.20;92.80;;;;;;4129362;28;20141;-58
2022/07/24 09:28:03;;;;;;;2.05;0.80;;;32.00;90.90;;;;;;4125358;28;20050;-59
2022/07/24 09:30:07;;;;;;;2.05;0.82;;;31.90;91.50;;;;;;4127808;28;20042;-57
2022/07/24 09:32:22;;;;;;;1.77;0.75;;;31.70;91.10;;;;;;4120772;28;20050;-57
2022/07/24 09:34:27;;;;;;;0.85;0.85;;;31.90;91.20;;;;;;4128783;28;20041;-57
2022/07/24 09:36:32;;;;;;;1.23;0.70;;;31.90;90.60;;;;;;4129739;28;20087;-58
2022/07/24 09:38:38;;;;;;;0.80;0.70;;;31.50;90.50;;;;;;4127563;28;20490;-58
2022/07/24 09:41:02;;;;;;;1.27;1.10;;;31.90;90.40;;;;;;4131584;28;20058;-57
2022/07/24 09:43:20;;;;;;;1.40;0.80;;;32.20;90.80;;;;;;4118289;28;20042;-57
2022/07/24 09:45:23;;;;;;;1.08;0.70;;;32.50;88.40;;;;;;4120854;28;20447;-57
2022/07/24 09:47:31;;;;;;;1.58;0.80;;;32.70;88.90;;;;;;4121485;28;20100;-57
2022/07/24 09:49:35;;;;;;;1.27;0.85;;;32.80;88.00;;;;;;4128244;28;20065;-57
2022/07/24 09:51:38;;;;;;;1.77;1.13;;;32.60;87.30;;;;;;4129921;28;20415;-57
2022/07/24 09:53:47;;;;;;;0.80;0.75;;;32.50;87.80;;;;;;4128007;28;20401;-57
2022/07/24 09:55:58;;;;;;;0.88;0.70;;;32.80;87.70;;;;;;4123492;28;20058;-57
2022/07/24 09:58:01;;;;;;;0.68;0.68;;;33.00;85.90;;;;;;4126356;28;20046;-57
2022/07/24 10:00:06;;;;;;;1.10;0.60;;;33.40;84.40;;;;;;4118814;28;20047;-58
2022/07/24 10:02:13;;;;;;;1.83;0.60;;;33.20;83.90;;;;;;4123518;28;20100;-58
2022/07/24 10:04:19;;;;;;;4.03;3.45;;;33.90;87.70;;;;;;4118842;28;20038;-59
2022/07/24 10:06:25;;;;;;;3.90;0.80;;;34.30;82.10;;;;;;4124640;28;20169;-59
2022/07/24 10:08:32;;;;;;;0.60;0.60;;;34.10;80.60;;;;;;4123796;28;20061;-59
2022/07/24 10:10:38;;;;;;;3.03;1.77;;;34.60;84.30;;;;;;4121391;28;20042;-58
2022/07/24 10:13:00;;;;;;;1.13;0.80;;;35.00;85.60;;;;;;4116522;28;20059;-59
2022/07/24 10:15:04;;;;;;;2.03;0.70;;;34.60;79.50;;;;;;4127267;28;20360;-58
2022/07/24 10:17:10;;;;;;;1.10;0.88;;;34.50;82.10;;;;;;4126916;28;20042;-58
2022/07/24 10:19:38;;;;;;;3.17;0.70;;;34.50;79.80;;;;;;4124306;28;20043;-59
2022/07/24 10:21:53;;;;;;;0.80;0.65;;;34.40;82.50;;;;;;4123188;28;20088;-58
2022/07/24 10:24:05;;;;;;;2.33;0.70;;;35.10;81.30;;;;;;4123974;28;20413;-59
2022/07/24 10:26:10;;;;;;;0.80;0.80;;;34.90;79.50;;;;;;4124728;28;20456;-58
2022/07/24 10:28:18;;;;;;;1.48;0.70;;;35.10;81.70;;;;;;4120908;28;20046;-58
2022/07/24 10:30:22;;;;;;;1.13;0.60;;;35.50;80.70;;;;;;4125225;28;20038;-58
2022/07/24 10:32:27;;;;;;;2.25;0.77;;;35.10;78.70;;;;;;4121981;28;20089;-59
2022/07/24 10:34:42;;;;;;;0.70;0.70;;;34.70;79.80;;;;;;4124253;28;20038;-59
2022/07/24 10:36:57;;;;;;;1.20;0.75;;;35.00;78.60;;;;;;4128317;28;20046;-59
2022/07/24 10:39:31;;;;;;;4.28;0.75;;;34.90;77.00;;;;;;4124660;28;20069;-59
2022/07/24 10:41:34;;;;;;;0.90;0.70;;;35.20;78.60;;;;;;4137058;28;20510;-60
2022/07/24 10:43:37;;;;;;;0.80;0.80;;;35.00;79.60;;;;;;4123733;28;20477;-58
2022/07/24 10:45:45;;;;;;;1.73;0.85;;;34.50;80.00;;;;;;4127734;28;20052;-58
2022/07/24 10:47:49;;;;;;;0.70;0.70;;;34.50;80.60;;;;;;4120559;28;20039;-59
2022/07/24 10:49:53;;;;;;;1.30;0.80;;;34.80;79.20;;;;;;4125237;28;20042;-58